Time;durP1;ratioP1;P1;durP2;ratioP2;P2;SDS_P1;SDS_P2;PMS_P1;PMS_P2;Temp;Humidity;BMP_temperature;BMP_pressure;BME280_temperature;BME280_humidity;BME280_pressure;Samples;Min_cycle;Max_cycle;Signal;HPM_P1;HPM_P2
2022/05/28 00:01:03;;;;;;;9.68;2.35;;;10.80;99.90;;;;;;4974838;28;20043;-82
2022/05/28 00:03:30;;;;;;;9.27;2.33;;;10.80;99.90;;;;;;5003063;28;20072;-85
2022/05/28 00:05:56;;;;;;;10.15;2.70;;;10.80;99.90;;;;;;4987279;28;20042;-82
2022/05/28 00:08:24;;;;;;;11.30;2.55;;;10.80;99.90;;;;;;4972986;28;20301;-81
2022/05/28 00:10:51;;;;;;;16.30;2.90;;;10.80;99.90;;;;;;4968954;28;20049;-83
2022/05/28 00:13:17;;;;;;;8.98;2.47;;;10.80;99.90;;;;;;4981417;28;20038;-79
2022/05/28 00:15:43;;;;;;;15.13;2.92;;;10.70;99.90;;;;;;4987416;28;20095;-81
2022/05/28 00:18:10;;;;;;;10.75;2.63;;;10.60;99.90;;;;;;4989165;28;20057;-81
2022/05/28 00:20:36;;;;;;;13.93;3.00;;;10.50;99.90;;;;;;4970560;28;20050;-82
2022/05/28 00:23:02;;;;;;;9.02;2.88;;;10.50;99.90;;;;;;4987560;28;20045;-82
2022/05/28 00:25:28;;;;;;;13.05;2.28;;;10.40;99.90;;;;;;4988552;28;20590;-81
2022/05/28 00:27:54;;;;;;;10.45;2.20;;;10.40;99.90;;;;;;4967719;28;20030;-81
2022/05/28 00:30:22;;;;;;;7.68;2.00;;;10.30;99.90;;;;;;4964314;28;20045;-82
2022/05/28 00:32:48;;;;;;;10.50;2.10;;;10.20;99.90;;;;;;4955283;28;20514;-81
2022/05/28 00:35:18;;;;;;;12.65;2.35;;;10.20;99.90;;;;;;4972842;28;20065;-84
2022/05/28 00:37:46;;;;;;;11.13;2.58;;;10.10;99.90;;;;;;4973982;28;20037;-82
2022/05/28 00:40:22;;;;;;;10.65;2.13;;;10.10;99.90;;;;;;4988830;28;20267;-80
2022/05/28 00:42:48;;;;;;;5.82;1.98;;;10.00;99.90;;;;;;4989134;28;20044;-83
2022/05/28 00:45:14;;;;;;;9.55;2.03;;;9.90;99.90;;;;;;4982806;28;20236;-82
2022/05/28 00:47:52;;;;;;;10.32;2.33;;;9.90;99.90;;;;;;4973810;28;20080;-82
2022/05/28 00:50:19;;;;;;;5.43;1.98;;;9.90;99.90;;;;;;4987191;28;20077;-81
2022/05/28 00:52:45;;;;;;;6.43;2.10;;;9.80;99.90;;;;;;4989479;28;20037;-81
2022/05/28 00:55:11;;;;;;;8.40;1.75;;;9.80;99.90;;;;;;4967535;28;20118;-86
2022/05/28 00:57:40;;;;;;;5.82;1.83;;;9.70;99.90;;;;;;4957210;28;20101;-82
2022/05/28 01:00:18;;;;;;;16.10;3.63;;;9.70;99.90;;;;;;4987950;28;20080;-81
2022/05/28 01:02:54;;;;;;;17.65;2.92;;;9.70;99.90;;;;;;4987340;28;20049;-83
2022/05/28 01:05:28;;;;;;;9.38;2.00;;;9.70;99.90;;;;;;4988230;28;20063;-83
2022/05/28 01:08:08;;;;;;;8.80;1.90;;;9.60;99.90;;;;;;4974713;28;20645;-83
2022/05/28 01:10:42;;;;;;;7.45;1.90;;;9.60;99.90;;;;;;4972807;28;20053;-83
2022/05/28 01:13:23;;;;;;;11.85;2.30;;;9.60;99.90;;;;;;4987748;28;20042;-82
2022/05/28 01:16:03;;;;;;;9.75;2.15;;;9.60;99.90;;;;;;4987152;28;20126;-81
2022/05/28 01:18:36;;;;;;;4.72;1.80;;;9.60;99.90;;;;;;4990135;28;20034;-83
2022/05/28 01:21:09;;;;;;;10.57;2.10;;;9.60;99.90;;;;;;4972962;28;20046;-83
2022/05/28 01:24:00;;;;;;;7.75;2.22;;;9.50;99.90;;;;;;4974003;28;20120;-83
2022/05/28 01:27:02;;;;;;;9.45;2.33;;;9.50;99.90;;;;;;4987891;28;20049;-82
2022/05/28 01:29:38;;;;;;;6.32;1.92;;;9.50;99.90;;;;;;4971533;28;20041;-83
2022/05/28 01:32:04;;;;;;;9.15;2.20;;;9.50;99.90;;;;;;4985855;28;20117;-84
2022/05/28 01:34:31;;;;;;;8.07;2.28;;;9.50;99.90;;;;;;4990163;28;20069;-85
2022/05/28 01:36:58;;;;;;;8.05;1.98;;;9.50;99.90;;;;;;4956147;28;20042;-84
2022/05/28 01:39:25;;;;;;;10.05;2.95;;;9.50;99.90;;;;;;4970553;28;20042;-83
2022/05/28 01:41:53;;;;;;;9.30;2.38;;;9.50;99.90;;;;;;4988173;28;20183;-84
2022/05/28 01:44:21;;;;;;;8.88;2.28;;;9.50;99.90;;;;;;4986927;28;20495;-85
2022/05/28 01:46:48;;;;;;;9.52;2.00;;;9.50;99.90;;;;;;4973671;28;20041;-83
2022/05/28 01:49:17;;;;;;;8.23;2.00;;;9.50;99.90;;;;;;4957922;28;20046;-83
2022/05/28 01:51:59;;;;;;;13.20;2.28;;;9.40;99.90;;;;;;4973352;28;20112;-85
2022/05/28 01:54:29;;;;;;;8.20;2.22;;;9.40;99.90;;;;;;4986326;28;20046;-83
2022/05/28 01:56:56;;;;;;;14.95;2.50;;;9.40;99.90;;;;;;4977367;28;20553;-84
2022/05/28 01:59:33;;;;;;;8.00;2.35;;;9.30;99.90;;;;;;4991416;28;20410;-83
2022/05/28 02:02:02;;;;;;;7.55;2.22;;;9.30;99.90;;;;;;4990201;28;20061;-84
2022/05/28 02:04:30;;;;;;;9.43;2.40;;;9.30;99.90;;;;;;4975111;28;20035;-84
2022/05/28 02:06:56;;;;;;;11.57;2.20;;;9.30;99.90;;;;;;5007779;28;20041;-83
2022/05/28 02:09:27;;;;;;;9.52;2.40;;;9.20;99.90;;;;;;4974127;28;20044;-82
2022/05/28 02:12:11;;;;;;;12.10;2.40;;;9.20;99.90;;;;;;4988417;28;20042;-82
2022/05/28 02:14:59;;;;;;;8.30;2.45;;;9.20;99.90;;;;;;4986847;28;20057;-81
2022/05/28 02:17:46;;;;;;;9.57;2.47;;;9.20;99.90;;;;;;4968565;28;20049;-83
2022/05/28 02:20:19;;;;;;;6.22;2.13;;;9.10;99.90;;;;;;5004302;28;20082;-82
2022/05/28 02:23:05;;;;;;;8.73;2.10;;;9.10;99.90;;;;;;4973484;28;20042;-83
2022/05/28 02:25:51;;;;;;;7.50;2.28;;;9.10;99.90;;;;;;4969924;28;20445;-84
2022/05/28 02:28:17;;;;;;;9.23;1.98;;;9.10;99.90;;;;;;4985832;28;20042;-83
2022/05/28 02:30:48;;;;;;;9.23;2.40;;;9.00;99.90;;;;;;4966939;28;20089;-85
2022/05/28 02:33:14;;;;;;;8.45;2.10;;;9.00;99.90;;;;;;4990933;28;20045;-85
2022/05/28 02:35:40;;;;;;;11.02;2.40;;;9.00;99.90;;;;;;4992055;28;20057;-84
2022/05/28 02:38:06;;;;;;;12.05;2.63;;;9.00;99.90;;;;;;4993362;28;20038;-84
2022/05/28 02:40:32;;;;;;;7.82;2.63;;;9.00;99.90;;;;;;4990553;28;20049;-85
2022/05/28 02:42:58;;;;;;;7.28;2.28;;;9.00;99.90;;;;;;4972999;28;20514;-85
2022/05/28 02:45:24;;;;;;;11.55;2.17;;;9.00;99.90;;;;;;4990536;28;20034;-83
2022/05/28 02:47:49;;;;;;;4.43;1.90;;;8.90;99.90;;;;;;4989002;28;20038;-83
2022/05/28 02:50:17;;;;;;;6.57;1.92;;;8.90;99.90;;;;;;4966466;28;20065;-83
2022/05/28 02:52:44;;;;;;;10.23;2.25;;;8.90;99.90;;;;;;4976422;28;20065;-83
2022/05/28 02:55:09;;;;;;;10.68;2.70;;;8.90;99.90;;;;;;4991715;28;20038;-84
2022/05/28 02:57:35;;;;;;;8.30;2.30;;;8.80;99.90;;;;;;4959292;28;20041;-83
2022/05/28 03:00:03;;;;;;;8.20;2.20;;;8.80;99.90;;;;;;4976331;28;20087;-84
2022/05/28 03:02:28;;;;;;;10.20;2.42;;;8.80;99.90;;;;;;4991493;28;20049;-82
2022/05/28 03:04:55;;;;;;;7.90;1.95;;;8.80;99.90;;;;;;4968570;28;20042;-81
2022/05/28 03:07:21;;;;;;;10.80;2.03;;;8.70;99.90;;;;;;4986299;28;20033;-82
2022/05/28 03:09:46;;;;;;;9.40;2.30;;;8.70;99.90;;;;;;4992465;28;20049;-83
2022/05/28 03:12:12;;;;;;;9.20;2.28;;;8.70;99.90;;;;;;4976484;28;20503;-84
2022/05/28 03:14:38;;;;;;;7.93;2.95;;;8.70;99.90;;;;;;4961129;28;20116;-83
2022/05/28 03:17:04;;;;;;;7.60;2.00;;;8.70;99.90;;;;;;4963747;28;20080;-83
2022/05/28 03:19:29;;;;;;;7.13;2.33;;;8.70;99.90;;;;;;4959463;28;20092;-83
2022/05/28 03:21:55;;;;;;;10.63;2.35;;;8.70;99.90;;;;;;4974528;28;20046;-82
2022/05/28 03:24:21;;;;;;;8.98;2.60;;;8.70;99.90;;;;;;4990038;28;20046;-82
2022/05/28 03:26:46;;;;;;;7.80;2.47;;;8.70;99.90;;;;;;4975201;28;20042;-82
2022/05/28 03:29:12;;;;;;;9.23;2.33;;;8.70;99.90;;;;;;4971229;28;20042;-84
2022/05/28 03:31:38;;;;;;;10.88;2.17;;;8.70;99.90;;;;;;4968156;28;20403;-83
2022/05/28 03:34:04;;;;;;;10.15;2.20;;;8.70;99.90;;;;;;4987416;28;20058;-83
2022/05/28 03:36:30;;;;;;;10.23;2.35;;;8.70;99.90;;;;;;4976147;28;20412;-84
2022/05/28 03:38:56;;;;;;;10.88;2.58;;;8.70;99.90;;;;;;5003125;28;20093;-84
2022/05/28 03:41:22;;;;;;;12.45;2.30;;;8.70;99.90;;;;;;4959214;28;20022;-83
2022/05/28 03:43:48;;;;;;;11.27;2.40;;;8.70;99.90;;;;;;4988566;28;20041;-82
2022/05/28 03:46:30;;;;;;;9.57;2.40;;;8.70;99.90;;;;;;4989201;28;20092;-82
2022/05/28 03:49:01;;;;;;;10.23;2.50;;;8.70;99.90;;;;;;4986254;28;20791;-81
2022/05/28 03:51:27;;;;;;;8.68;2.60;;;8.70;99.90;;;;;;4988480;28;20041;-81
2022/05/28 03:53:52;;;;;;;13.70;2.60;;;8.70;99.90;;;;;;4959441;28;20041;-82
2022/05/28 03:56:20;;;;;;;6.05;2.20;;;8.70;99.90;;;;;;4989852;28;20068;-82
2022/05/28 03:58:46;;;;;;;11.35;2.40;;;8.70;99.90;;;;;;4957406;28;20038;-81
2022/05/28 04:01:11;;;;;;;12.07;2.72;;;8.70;99.90;;;;;;4987482;28;20045;-82
2022/05/28 04:03:37;;;;;;;10.75;2.47;;;8.70;99.90;;;;;;4986232;28;20247;-83
2022/05/28 04:06:04;;;;;;;12.35;2.85;;;8.70;99.90;;;;;;4969745;28;20053;-82
2022/05/28 04:08:29;;;;;;;11.68;2.80;;;8.70;99.90;;;;;;4990598;28;20605;-82
2022/05/28 04:10:55;;;;;;;9.75;2.40;;;8.70;99.90;;;;;;4972124;28;20050;-82
2022/05/28 04:13:21;;;;;;;8.45;2.80;;;8.70;99.90;;;;;;4974258;28;20519;-82
2022/05/28 04:15:49;;;;;;;9.80;2.60;;;8.80;99.90;;;;;;4988864;28;20041;-81
2022/05/28 04:18:15;;;;;;;8.68;2.50;;;8.80;99.90;;;;;;4974829;28;20042;-81
2022/05/28 04:20:41;;;;;;;8.30;2.65;;;8.80;99.90;;;;;;4970197;28;20049;-81
2022/05/28 04:23:06;;;;;;;7.55;2.45;;;8.80;99.90;;;;;;4989788;28;20038;-82
2022/05/28 04:25:32;;;;;;;10.40;2.53;;;8.80;99.90;;;;;;4989378;28;20038;-82
2022/05/28 04:27:58;;;;;;;5.53;2.30;;;8.80;99.90;;;;;;4971690;28;20045;-81
2022/05/28 04:30:24;;;;;;;11.50;2.25;;;8.80;99.90;;;;;;4989229;28;20073;-82
2022/05/28 04:32:50;;;;;;;12.85;3.05;;;8.80;99.90;;;;;;4988473;28;20038;-82
2022/05/28 04:35:16;;;;;;;8.05;2.47;;;8.80;99.90;;;;;;4965923;28;20348;-82
2022/05/28 04:37:41;;;;;;;10.52;2.72;;;8.80;99.90;;;;;;4973321;28;20042;-82
2022/05/28 04:40:11;;;;;;;11.70;2.55;;;8.80;99.90;;;;;;4972348;28;20399;-82
2022/05/28 04:42:37;;;;;;;10.93;2.95;;;8.70;99.90;;;;;;4970468;28;20392;-82
2022/05/28 04:45:03;;;;;;;11.10;3.03;;;8.70;99.90;;;;;;4973238;28;20046;-82
2022/05/28 04:47:30;;;;;;;7.05;2.50;;;8.70;99.90;;;;;;4957654;28;20038;-82
2022/05/28 04:49:55;;;;;;;6.35;2.25;;;8.80;99.90;;;;;;4986336;28;20073;-79
2022/05/28 04:52:21;;;;;;;9.55;2.33;;;8.80;99.90;;;;;;4956345;28;20163;-82
2022/05/28 04:54:50;;;;;;;15.15;3.22;;;8.80;99.90;;;;;;4972756;28;20491;-83
2022/05/28 04:57:16;;;;;;;15.55;3.05;;;8.80;99.90;;;;;;4966411;28;20050;-81
2022/05/28 04:59:41;;;;;;;11.48;2.67;;;8.80;99.90;;;;;;4987029;28;20410;-82
2022/05/28 05:02:07;;;;;;;8.70;2.80;;;8.80;99.90;;;;;;4970801;28;20065;-84
2022/05/28 05:04:33;;;;;;;12.00;2.90;;;8.80;99.90;;;;;;4989510;28;20112;-83
2022/05/28 05:06:59;;;;;;;13.48;3.10;;;8.90;99.90;;;;;;4968938;28;20129;-82
2022/05/28 05:09:25;;;;;;;23.17;5.07;;;8.90;99.90;;;;;;4986638;28;20050;-82
2022/05/28 05:11:50;;;;;;;12.68;3.30;;;8.90;99.90;;;;;;4956437;28;20046;-82
2022/05/28 05:14:16;;;;;;;15.10;3.22;;;9.10;99.90;;;;;;4987505;28;20038;-83
2022/05/28 05:16:42;;;;;;;11.57;3.65;;;9.10;99.90;;;;;;4973000;28;20034;-82
2022/05/28 05:19:07;;;;;;;10.30;3.20;;;9.10;99.90;;;;;;4970875;28;20045;-82
2022/05/28 05:21:33;;;;;;;13.10;3.25;;;9.10;99.90;;;;;;4987947;28;20129;-82
2022/05/28 05:23:59;;;;;;;7.78;2.85;;;9.20;99.90;;;;;;4970380;28;20045;-83
2022/05/28 05:26:25;;;;;;;8.85;2.90;;;9.30;99.90;;;;;;5002423;28;20066;-82
2022/05/28 05:28:51;;;;;;;14.93;3.97;;;9.40;99.90;;;;;;4987212;28;20092;-82
2022/05/28 05:31:17;;;;;;;13.15;2.83;;;9.50;99.90;;;;;;4988362;28;20072;-82
2022/05/28 05:33:43;;;;;;;12.23;3.55;;;9.60;99.90;;;;;;4970227;28;20081;-83
2022/05/28 05:36:10;;;;;;;14.23;3.20;;;9.60;99.90;;;;;;4983273;28;20042;-82
2022/05/28 05:38:36;;;;;;;11.00;2.53;;;9.70;99.90;;;;;;4988133;28;20037;-82
2022/05/28 05:41:02;;;;;;;10.50;2.78;;;9.70;99.90;;;;;;4971751;28;20044;-81
2022/05/28 05:43:27;;;;;;;17.23;3.13;;;9.80;99.90;;;;;;4986168;28;20033;-81
2022/05/28 05:45:57;;;;;;;11.52;2.95;;;9.90;99.90;;;;;;4972813;28;20126;-82
2022/05/28 05:48:24;;;;;;;13.52;3.53;;;9.90;99.90;;;;;;4986636;28;20073;-81
2022/05/28 05:50:50;;;;;;;16.83;3.20;;;10.00;99.90;;;;;;4988793;28;20072;-82
2022/05/28 05:53:16;;;;;;;16.38;3.25;;;10.10;99.90;;;;;;4968835;28;20073;-81
2022/05/28 05:55:42;;;;;;;11.60;2.95;;;10.10;99.90;;;;;;4972985;28;20030;-82
2022/05/28 05:58:08;;;;;;;14.55;3.08;;;10.20;99.90;;;;;;4971041;28;20100;-82
2022/05/28 06:00:35;;;;;;;9.50;2.92;;;10.20;99.90;;;;;;4966730;28;20636;-81
2022/05/28 06:03:01;;;;;;;14.98;3.13;;;10.20;99.90;;;;;;4987178;28;20589;-81
2022/05/28 06:05:26;;;;;;;13.10;3.40;;;10.30;99.90;;;;;;4967372;28;20380;-81
2022/05/28 06:07:52;;;;;;;20.73;3.72;;;10.30;99.90;;;;;;5000506;28;20033;-80
2022/05/28 06:10:18;;;;;;;18.33;3.20;;;10.40;99.90;;;;;;4971235;28;20486;-80
2022/05/28 06:12:44;;;;;;;19.42;3.72;;;10.40;99.90;;;;;;4985010;28;20037;-83
2022/05/28 06:15:10;;;;;;;13.25;3.63;;;10.30;99.90;;;;;;4985317;28;20113;-81
2022/05/28 06:17:36;;;;;;;15.85;3.55;;;10.40;99.90;;;;;;4956232;28;20080;-81
2022/05/28 06:20:04;;;;;;;11.95;3.05;;;10.40;99.90;;;;;;4986962;28;20046;-81
2022/05/28 06:22:30;;;;;;;12.10;3.72;;;10.50;99.90;;;;;;4973689;28;20069;-80
2022/05/28 06:24:55;;;;;;;16.15;3.50;;;10.70;99.90;;;;;;4984574;28;20037;-81
2022/05/28 06:27:22;;;;;;;14.65;2.90;;;10.90;99.90;;;;;;4956405;28;20414;-82
2022/05/28 06:29:47;;;;;;;10.65;3.00;;;11.10;99.90;;;;;;5004822;28;20476;-81
2022/05/28 06:32:13;;;;;;;16.05;3.15;;;11.20;99.90;;;;;;4964137;28;20065;-83
2022/05/28 06:34:39;;;;;;;16.00;3.38;;;11.20;99.90;;;;;;4988573;28;20573;-81
2022/05/28 06:37:09;;;;;;;13.05;3.28;;;11.20;99.90;;;;;;4987646;28;20643;-82
2022/05/28 06:39:36;;;;;;;8.60;2.85;;;11.20;99.90;;;;;;4989048;28;20049;-83
2022/05/28 06:42:03;;;;;;;12.00;2.72;;;11.30;99.90;;;;;;4972732;28;20097;-83
2022/05/28 06:44:29;;;;;;;9.43;2.80;;;11.40;99.90;;;;;;4970716;28;20061;-83
2022/05/28 06:46:55;;;;;;;17.60;2.97;;;11.50;99.90;;;;;;4987176;28;20034;-81
2022/05/28 06:49:21;;;;;;;11.35;2.60;;;11.50;99.90;;;;;;4986989;28;20112;-82
2022/05/28 06:51:48;;;;;;;10.95;2.75;;;11.60;99.90;;;;;;4971776;28;20504;-82
2022/05/28 06:54:14;;;;;;;9.50;2.90;;;11.60;99.90;;;;;;4985499;28;20041;-82
2022/05/28 06:56:40;;;;;;;11.98;2.80;;;11.80;99.90;;;;;;4984665;28;20085;-81
2022/05/28 06:59:05;;;;;;;8.35;2.47;;;11.90;99.90;;;;;;4973679;28;20470;-82
2022/05/28 07:01:31;;;;;;;9.43;3.20;;;11.90;99.90;;;;;;4987229;28;20042;-81
2022/05/28 07:03:57;;;;;;;12.27;3.13;;;12.00;99.90;;;;;;4988304;28;20487;-81
2022/05/28 07:06:23;;;;;;;10.75;3.15;;;12.00;99.90;;;;;;4988394;28;20088;-80
2022/05/28 07:08:49;;;;;;;13.45;3.03;;;12.20;99.90;;;;;;4986242;28;20088;-80
2022/05/28 07:11:17;;;;;;;10.65;3.58;;;12.30;99.90;;;;;;4985916;28;20482;-86
2022/05/28 07:13:42;;;;;;;11.63;3.13;;;12.30;99.90;;;;;;4976105;28;20118;-78
2022/05/28 07:16:09;;;;;;;16.77;3.15;;;12.20;99.90;;;;;;4960020;28;20128;-79
2022/05/28 07:18:36;;;;;;;9.20;3.17;;;11.90;99.90;;;;;;4982794;28;20463;-78
2022/05/28 07:21:03;;;;;;;7.00;2.80;;;11.60;99.90;;;;;;4968819;28;20042;-79
2022/05/28 07:23:30;;;;;;;9.65;2.95;;;11.50;99.90;;;;;;4993990;28;20045;-79
2022/05/28 07:26:08;;;;;;;16.10;3.28;;;11.50;99.90;;;;;;4995367;28;20104;-80
2022/05/28 07:28:36;;;;;;;13.40;3.00;;;11.50;99.90;;;;;;4995206;28;20077;-78
2022/05/28 07:31:07;;;;;;;10.70;3.00;;;11.60;99.90;;;;;;4978201;28;20041;-81
2022/05/28 07:33:36;;;;;;;11.70;2.67;;;11.60;99.90;;;;;;4981010;28;20506;-79
2022/05/28 07:36:04;;;;;;;9.48;3.00;;;11.70;99.90;;;;;;4992037;28;20050;-79
2022/05/28 07:38:32;;;;;;;8.52;2.92;;;11.70;99.90;;;;;;4989634;28;20050;-81
2022/05/28 07:41:05;;;;;;;11.60;3.10;;;11.80;99.90;;;;;;4994398;28;20038;-81
2022/05/28 07:43:32;;;;;;;15.63;2.88;;;11.80;99.90;;;;;;4978245;28;20053;-81
2022/05/28 07:45:58;;;;;;;7.13;2.47;;;11.90;99.90;;;;;;4986973;28;20061;-82
2022/05/28 07:48:24;;;;;;;8.30;3.03;;;11.80;99.90;;;;;;4994928;28;20084;-81
2022/05/28 07:50:49;;;;;;;6.63;2.50;;;11.70;99.90;;;;;;4990937;28;20065;-80
2022/05/28 07:53:16;;;;;;;7.43;2.50;;;11.70;99.90;;;;;;4977363;28;20045;-78
2022/05/28 07:55:44;;;;;;;6.72;2.78;;;11.70;99.90;;;;;;4973455;28;20336;-81
2022/05/28 07:58:14;;;;;;;7.68;2.45;;;11.60;99.90;;;;;;4972181;28;20132;-82
2022/05/28 08:00:46;;;;;;;7.82;2.13;;;11.70;99.90;;;;;;4988897;28;20042;-81
2022/05/28 08:03:13;;;;;;;11.25;3.13;;;11.80;99.90;;;;;;4986787;28;20034;-81
2022/05/28 08:05:42;;;;;;;4.72;2.20;;;11.90;99.90;;;;;;4993989;28;20034;-81
2022/05/28 08:08:09;;;;;;;4.70;2.17;;;11.90;99.90;;;;;;4971859;28;20038;-81
2022/05/28 08:10:35;;;;;;;8.20;2.88;;;12.00;99.90;;;;;;4994192;28;20045;-80
2022/05/28 08:13:07;;;;;;;10.07;2.78;;;12.10;99.90;;;;;;4979429;28;20141;-80
2022/05/28 08:15:34;;;;;;;11.73;2.50;;;12.30;99.90;;;;;;4989225;28;20038;-82
2022/05/28 08:18:00;;;;;;;7.85;3.25;;;12.50;99.90;;;;;;4982877;28;20092;-80
2022/05/28 08:23:10;;;;;;;9.50;2.53;;;13.00;99.90;;;;;;4989165;28;20042;-82
2022/05/28 08:25:39;;;;;;;14.35;2.78;;;12.90;99.90;;;;;;4987622;28;20030;-81
2022/05/28 08:28:09;;;;;;;13.98;3.10;;;13.00;99.90;;;;;;4989323;28;20105;-81
2022/05/28 08:30:35;;;;;;;11.77;3.45;;;13.20;99.90;;;;;;4974309;28;20068;-81
2022/05/28 08:33:02;;;;;;;11.05;3.30;;;13.50;99.90;;;;;;4988025;28;20104;-81
2022/05/28 08:35:28;;;;;;;18.65;3.10;;;13.60;99.90;;;;;;4981280;28;20141;-81
2022/05/28 08:37:53;;;;;;;11.50;3.05;;;13.60;99.90;;;;;;4956733;28;20117;-82
2022/05/28 08:40:19;;;;;;;10.45;3.10;;;13.60;99.90;;;;;;4991031;28;20084;-81
2022/05/28 08:42:46;;;;;;;7.78;2.72;;;13.60;99.90;;;;;;4983395;28;20518;-84
2022/05/28 08:45:13;;;;;;;21.58;3.45;;;13.60;99.90;;;;;;4967104;28;20048;-81
2022/05/28 08:47:42;;;;;;;13.73;3.20;;;13.40;99.90;;;;;;4982856;28;20390;-80
2022/05/28 08:50:10;;;;;;;8.38;3.00;;;13.20;99.90;;;;;;4962190;28;20038;-81
2022/05/28 08:52:59;;;;;;;15.57;3.58;;;13.10;99.90;;;;;;4964329;28;20123;-80
2022/05/28 08:55:26;;;;;;;13.32;3.08;;;13.00;99.90;;;;;;4970088;28;20042;-82
2022/05/28 08:58:05;;;;;;;12.73;3.15;;;13.00;99.90;;;;;;4973628;28;20042;-79
2022/05/28 09:00:33;;;;;;;12.40;3.22;;;13.00;99.90;;;;;;4986653;28;20454;-81
2022/05/28 09:03:27;;;;;;;10.65;4.00;;;13.30;99.90;;;;;;4972183;28;20041;-79
2022/05/28 09:05:53;;;;;;;13.68;3.33;;;13.50;99.90;;;;;;4973466;28;20042;-80
2022/05/28 09:08:30;;;;;;;9.55;3.28;;;13.60;99.90;;;;;;4973802;28;20046;-83
2022/05/28 09:11:01;;;;;;;11.65;2.97;;;13.60;99.90;;;;;;4987201;28;20042;-81
2022/05/28 09:13:36;;;;;;;9.68;2.72;;;13.50;99.90;;;;;;4974270;28;20045;-81
2022/05/28 09:16:03;;;;;;;17.98;2.85;;;13.50;99.90;;;;;;4970351;28;20064;-80
2022/05/28 09:18:35;;;;;;;13.80;3.22;;;13.40;99.90;;;;;;4969014;28;20057;-79
2022/05/28 09:21:02;;;;;;;8.68;3.17;;;13.20;99.90;;;;;;4986981;28;20132;-80
2022/05/28 09:23:35;;;;;;;12.10;3.10;;;13.10;99.90;;;;;;4983505;28;20036;-78
2022/05/28 09:26:03;;;;;;;7.43;3.10;;;12.80;99.90;;;;;;4974829;28;20042;-79
2022/05/28 09:28:48;;;;;;;9.93;3.03;;;12.90;99.90;;;;;;4987012;28;20068;-79
2022/05/28 09:31:23;;;;;;;9.90;2.92;;;13.20;99.90;;;;;;5007755;28;20462;-81
2022/05/28 09:34:22;;;;;;;11.55;2.95;;;13.50;99.90;;;;;;4990697;28;20046;-81
2022/05/28 09:37:21;;;;;;;13.73;3.75;;;13.60;99.90;;;;;;4967081;28;20331;-81
2022/05/28 09:40:12;;;;;;;8.38;2.80;;;13.80;99.90;;;;;;4923048;28;20052;-81
2022/05/28 09:42:53;;;;;;;13.07;3.80;;;14.00;99.90;;;;;;4987332;28;20508;-81
2022/05/28 09:45:31;;;;;;;11.98;3.50;;;13.90;99.90;;;;;;4994130;28;20041;-80
2022/05/28 09:47:57;;;;;;;13.25;2.90;;;13.80;99.90;;;;;;4983979;28;20037;-79
2022/05/28 09:50:26;;;;;;;16.98;3.67;;;14.00;99.90;;;;;;4977239;28;20539;-80
2022/05/28 09:56:15;;;;;;;11.57;3.67;;;14.60;99.90;;;;;;4982311;28;20042;-81
2022/05/28 09:58:41;;;;;;;8.40;2.75;;;15.00;99.90;;;;;;4988398;28;20130;-82
2022/05/28 10:01:11;;;;;;;15.40;3.60;;;15.20;99.90;;;;;;4991718;28;20462;-80
2022/05/28 10:06:30;;;;;;;8.45;2.92;;;14.70;99.90;;;;;;4982340;28;20402;-81
2022/05/28 10:08:56;;;;;;;11.73;4.50;;;14.20;99.90;;;;;;4972353;28;20038;-81
2022/05/28 10:11:23;;;;;;;175.68;104.22;;;13.90;99.90;;;;;;4965913;28;20097;-81
2022/05/28 10:13:56;;;;;;;12.52;4.38;;;13.70;99.90;;;;;;4956392;28;20038;-80
2022/05/28 10:16:27;;;;;;;10.50;3.08;;;13.70;99.90;;;;;;4979264;28;20073;-81
2022/05/28 10:18:58;;;;;;;15.63;4.55;;;13.70;99.90;;;;;;4979982;28;20039;-79
2022/05/28 10:21:34;;;;;;;16.38;3.33;;;13.80;99.90;;;;;;5007455;28;20034;-81
2022/05/28 10:24:03;;;;;;;10.45;3.08;;;14.10;99.90;;;;;;4972454;28;20068;-80
2022/05/28 10:26:53;;;;;;;10.30;2.30;;;14.20;99.90;;;;;;4983630;28;20042;-80
2022/05/28 10:29:23;;;;;;;10.70;2.92;;;14.00;99.90;;;;;;4987544;28;20462;-82
2022/05/28 10:31:51;;;;;;;6.25;2.60;;;14.20;99.90;;;;;;4970195;28;20052;-82
2022/05/28 10:34:31;;;;;;;9.93;3.35;;;14.50;99.90;;;;;;4985411;28;20057;-82
2022/05/28 10:37:19;;;;;;;8.00;2.47;;;14.90;99.90;;;;;;4971009;28;20069;-82
2022/05/28 10:39:47;;;;;;;10.05;2.80;;;15.10;99.90;;;;;;4970739;28;20399;-81
2022/05/28 10:42:14;;;;;;;9.43;2.70;;;15.10;99.90;;;;;;4985427;28;20046;-81
2022/05/28 10:44:41;;;;;;;11.52;3.15;;;15.10;99.90;;;;;;4983557;28;20092;-81
2022/05/28 10:47:26;;;;;;;9.02;2.58;;;14.90;99.90;;;;;;4966656;28;20044;-82
2022/05/28 10:50:16;;;;;;;10.57;3.22;;;14.70;99.70;;;;;;4984673;28;20049;-81
2022/05/28 10:53:04;;;;;;;11.63;2.50;;;14.50;99.90;;;;;;4976497;28;20255;-83
2022/05/28 10:55:43;;;;;;;8.25;2.47;;;14.20;99.90;;;;;;5001912;28;20046;-80
2022/05/28 10:58:20;;;;;;;11.65;2.95;;;13.90;99.90;;;;;;4961427;28;20042;-79
2022/05/28 11:00:46;;;;;;;9.68;2.88;;;13.50;99.90;;;;;;4998106;28;20454;-81
2022/05/28 11:03:50;;;;;;;12.35;3.35;;;13.30;99.90;;;;;;5006902;28;20041;-80
2022/05/28 11:06:19;;;;;;;13.48;2.75;;;13.20;99.90;;;;;;4930077;29;20036;-81
2022/05/28 11:09:04;;;;;;;9.25;2.85;;;13.20;99.90;;;;;;4914900;29;20100;-83
2022/05/28 11:11:42;;;;;;;12.40;2.92;;;13.40;99.90;;;;;;4946951;28;20042;-81
2022/05/28 11:14:49;;;;;;;17.33;4.72;;;13.60;99.90;;;;;;4974721;28;20376;-82
2022/05/28 11:17:48;;;;;;;11.20;2.97;;;14.00;99.90;;;;;;4922828;29;20049;-81
2022/05/28 11:20:35;;;;;;;11.55;2.80;;;14.30;99.90;;;;;;4978109;28;20156;-82
2022/05/28 11:23:23;;;;;;;8.93;2.70;;;14.60;99.90;;;;;;4994991;28;20515;-80
2022/05/28 11:26:23;;;;;;;9.85;2.55;;;14.70;99.90;;;;;;4992694;28;20517;-82
2022/05/28 11:29:07;;;;;;;18.00;2.75;;;14.70;99.90;;;;;;4991687;28;20038;-81
2022/05/28 11:31:41;;;;;;;9.57;2.72;;;14.80;99.90;;;;;;4982061;28;20069;-81
2022/05/28 11:34:19;;;;;;;9.52;2.72;;;15.00;99.90;;;;;;4971883;28;20141;-83
2022/05/28 11:36:50;;;;;;;8.00;2.00;;;14.90;99.90;;;;;;4972785;28;20041;-81
2022/05/28 11:39:23;;;;;;;7.85;2.50;;;14.80;99.10;;;;;;4990732;28;20157;-82
2022/05/28 11:42:13;;;;;;;9.57;2.65;;;14.60;99.20;;;;;;4992706;28;20045;-82
2022/05/28 11:44:44;;;;;;;10.88;2.80;;;14.50;99.60;;;;;;4972003;28;20483;-83
2022/05/28 11:47:55;;;;;;;9.30;2.30;;;14.30;99.90;;;;;;4986755;28;20140;-82
2022/05/28 11:53:42;;;;;;;8.10;2.15;;;13.90;99.90;;;;;;4990818;28;20128;-82
2022/05/28 11:56:28;;;;;;;8.63;2.88;;;13.80;98.90;;;;;;4980930;28;20045;-81
2022/05/28 11:59:15;;;;;;;10.13;2.47;;;13.70;99.10;;;;;;4991843;28;20103;-82
2022/05/28 12:01:44;;;;;;;7.28;2.33;;;13.70;99.80;;;;;;4984630;28;20065;-82
2022/05/28 12:04:11;;;;;;;8.40;2.80;;;13.80;99.90;;;;;;4982691;28;20046;-82
2022/05/28 12:06:41;;;;;;;7.20;2.17;;;14.00;99.90;;;;;;4989399;28;20030;-82
2022/05/28 12:09:18;;;;;;;7.85;5.18;;;14.30;99.90;;;;;;4973143;28;20045;-82
2022/05/28 12:11:50;;;;;;;11.23;5.38;;;14.40;99.20;;;;;;5003240;28;20046;-81
2022/05/28 12:14:32;;;;;;;7.13;2.00;;;14.60;99.90;;;;;;4997763;28;20539;-81
2022/05/28 12:17:11;;;;;;;10.85;3.00;;;14.60;99.90;;;;;;4989373;28;20045;-81
2022/05/28 12:19:50;;;;;;;8.00;2.85;;;14.70;98.90;;;;;;4971777;28;20046;-80
2022/05/28 12:22:32;;;;;;;9.93;2.47;;;14.90;98.80;;;;;;4977374;28;20034;-81
2022/05/28 12:25:11;;;;;;;9.23;2.07;;;15.10;99.40;;;;;;4990108;28;20496;-81
2022/05/28 12:27:57;;;;;;;6.63;2.97;;;15.10;98.80;;;;;;4988381;28;20426;-82
2022/05/28 12:30:30;;;;;;;8.10;2.35;;;15.00;98.10;;;;;;4982666;28;20049;-79
2022/05/28 12:32:57;;;;;;;6.47;2.17;;;14.90;97.40;;;;;;4986216;28;20081;-82
2022/05/28 12:35:34;;;;;;;15.38;2.92;;;14.80;97.80;;;;;;4993651;28;20507;-81
2022/05/28 12:38:09;;;;;;;7.57;2.40;;;14.70;98.50;;;;;;4977971;28;20046;-82
2022/05/28 12:40:54;;;;;;;10.57;3.72;;;14.80;99.20;;;;;;4993124;28;20060;-81
2022/05/28 12:43:30;;;;;;;9.20;3.15;;;14.60;98.90;;;;;;4993542;28;20038;-81
2022/05/28 12:45:58;;;;;;;8.10;2.33;;;14.50;99.50;;;;;;4993385;28;20085;-81
2022/05/28 12:48:30;;;;;;;9.98;2.45;;;14.30;99.90;;;;;;4974360;28;20088;-81
2022/05/28 12:51:20;;;;;;;9.68;3.33;;;14.00;99.90;;;;;;4968893;28;20038;-83
2022/05/28 12:54:14;;;;;;;10.15;2.75;;;13.80;99.90;;;;;;4984178;28;20507;-78
2022/05/28 12:56:44;;;;;;;6.45;2.20;;;13.60;99.90;;;;;;4923360;29;20047;-82
2022/05/28 12:59:29;;;;;;;6.95;2.00;;;13.50;99.90;;;;;;4917235;29;20461;-82
2022/05/28 13:01:59;;;;;;;14.05;2.83;;;13.60;99.90;;;;;;4917902;29;20178;-81
2022/05/28 13:04:45;;;;;;;6.00;2.08;;;13.60;99.90;;;;;;4933084;29;20408;-80
2022/05/28 13:07:51;;;;;;;7.50;2.35;;;13.70;99.90;;;;;;4918492;29;20055;-81
2022/05/28 13:10:23;;;;;;;6.25;2.17;;;14.10;99.90;;;;;;4877225;29;20055;-83
2022/05/28 13:13:23;;;;;;;16.50;2.97;;;14.60;99.90;;;;;;4933394;29;20099;-81
2022/05/28 13:15:57;;;;;;;10.82;2.45;;;15.00;99.90;;;;;;4925406;29;20044;-82
2022/05/28 13:18:57;;;;;;;13.25;2.80;;;15.40;99.90;;;;;;4933524;28;20525;-82